Time;durP1;ratioP1;P1;durP2;ratioP2;P2;SDS_P1;SDS_P2;PMS_P1;PMS_P2;Temp;Humidity;BMP_temperature;BMP_pressure;BME280_temperature;BME280_humidity;BME280_pressure;Samples;Min_cycle;Max_cycle;Signal;HPM_P1;HPM_P2
2022/05/20 00:01:39;;;;;;;;;;;14.10;99.90;;;;;;8387400;28;19932;-71
2022/05/20 00:05:41;;;;;;;;;;;14.00;99.90;;;;;;8393547;28;20012;-71
2022/05/20 00:09:43;;;;;;;;;;;14.00;99.90;;;;;;8374229;28;19929;-71
2022/05/20 00:13:45;;;;;;;;;;;13.90;99.90;;;;;;8381547;28;19936;-71
2022/05/20 00:17:47;;;;;;;;;;;13.90;99.90;;;;;;8392811;28;19925;-70
2022/05/20 00:21:48;;;;;;;;;;;13.80;99.90;;;;;;8379745;28;19929;-71
2022/05/20 00:25:50;;;;;;;;;;;13.80;99.90;;;;;;8384282;28;19924;-71
2022/05/20 00:29:52;;;;;;;;;;;13.80;99.90;;;;;;8376121;28;19928;-71
2022/05/20 00:33:54;;;;;;;;;;;13.70;99.90;;;;;;8383744;28;19943;-71
2022/05/20 00:37:55;;;;;;;;;;;13.70;99.90;;;;;;8401223;28;19927;-71
2022/05/20 00:41:57;;;;;;;;;;;13.70;99.90;;;;;;8380665;28;19932;-71
2022/05/20 00:46:00;;;;;;;;;;;13.70;99.90;;;;;;8379576;28;20208;-71
2022/05/20 00:50:04;;;;;;;;;;;13.70;99.90;;;;;;8380320;28;19924;-71
2022/05/20 00:54:09;;;;;;;;;;;13.60;99.90;;;;;;8382615;28;20368;-71
2022/05/20 00:58:13;;;;;;;;;;;13.60;99.90;;;;;;8382313;28;20245;-71
2022/05/20 01:02:17;;;;;;;;;;;13.50;99.90;;;;;;8373629;28;19931;-70
2022/05/20 01:06:24;;;;;;;;;;;13.50;99.90;;;;;;8399763;28;20340;-70
2022/05/20 01:10:26;;;;;;;;;;;13.40;99.90;;;;;;8377784;28;19920;-71
2022/05/20 01:14:28;;;;;;;;;;;13.40;99.90;;;;;;8390953;28;19927;-71
2022/05/20 01:18:34;;;;;;;;;;;13.40;99.90;;;;;;8392623;28;19920;-70
2022/05/20 01:23:04;;;;;;;;;;;13.30;99.90;;;;;;8388571;28;19924;-71
2022/05/20 01:27:06;;;;;;;;;;;13.30;99.90;;;;;;8374133;28;19924;-70
2022/05/20 01:31:13;;;;;;;;;;;13.30;99.90;;;;;;8390787;28;19920;-70
2022/05/20 01:35:17;;;;;;;;;;;13.20;99.90;;;;;;8385175;28;19927;-71
2022/05/20 01:39:18;;;;;;;;;;;13.20;99.90;;;;;;8400463;28;19924;-71
2022/05/20 01:43:23;;;;;;;;;;;13.10;99.90;;;;;;8389577;28;20339;-71
2022/05/20 01:47:28;;;;;;;;;;;13.10;99.90;;;;;;8392427;28;19994;-71
2022/05/20 01:51:33;;;;;;;;;;;13.10;99.90;;;;;;8377748;28;19990;-71
2022/05/20 01:55:34;;;;;;;;;;;13.00;99.90;;;;;;8387311;28;19920;-71
2022/05/20 02:04:56;;;;;;;;;;;12.90;99.90;;;;;;8386907;28;20416;-71
2022/05/20 02:08:59;;;;;;;;;;;12.90;99.90;;;;;;8374051;28;19957;-70
2022/05/20 02:13:02;;;;;;;;;;;12.90;99.90;;;;;;8379533;28;19920;-71
2022/05/20 02:17:08;;;;;;;;;;;12.90;99.90;;;;;;8405262;28;19944;-71
2022/05/20 02:21:12;;;;;;;;;;;12.90;99.90;;;;;;8379939;28;19920;-71
2022/05/20 02:25:17;;;;;;;;;;;12.80;99.90;;;;;;8389488;28;19921;-70
2022/05/20 02:29:21;;;;;;;;;;;12.80;99.90;;;;;;8385014;28;20364;-70
2022/05/20 02:33:24;;;;;;;;;;;12.80;99.90;;;;;;8386439;28;19936;-71
2022/05/20 02:37:33;;;;;;;;;;;12.80;99.90;;;;;;8389459;28;20391;-71
2022/05/20 02:41:36;;;;;;;;;;;12.70;99.90;;;;;;8388284;28;19924;-71
2022/05/20 02:45:39;;;;;;;;;;;12.70;99.90;;;;;;8393230;28;19920;-71
2022/05/20 02:49:41;;;;;;;;;;;12.60;99.90;;;;;;8390949;28;20334;-71
2022/05/20 02:53:44;;;;;;;;;;;12.60;99.90;;;;;;8381498;28;19924;-71
2022/05/20 02:57:45;;;;;;;;;;;12.60;99.90;;;;;;8381872;28;20296;-70
2022/05/20 03:06:07;;;;;;;;;;;12.50;99.90;;;;;;8390810;28;19924;-71
2022/05/20 03:10:09;;;;;;;;;;;12.40;99.90;;;;;;8385685;28;19925;-71
2022/05/20 03:14:13;;;;;;;;;;;12.30;99.90;;;;;;8385412;28;20237;-70
2022/05/20 03:18:14;;;;;;;;;;;12.30;99.90;;;;;;8387310;28;20283;-71
2022/05/20 03:22:16;;;;;;;;;;;12.30;99.90;;;;;;8383712;28;19931;-71
2022/05/20 03:26:18;;;;;;;;;;;12.20;99.90;;;;;;8391792;28;20267;-71
2022/05/20 03:30:20;;;;;;;;;;;12.20;99.90;;;;;;8389990;28;19921;-70
2022/05/20 03:34:21;;;;;;;;;;;12.20;99.90;;;;;;8402689;28;20368;-70
2022/05/20 03:38:23;;;;;;;;;;;12.20;99.90;;;;;;8381669;28;19920;-71
2022/05/20 03:42:25;;;;;;;;;;;12.10;99.90;;;;;;8382963;28;20035;-71
2022/05/20 03:46:27;;;;;;;;;;;12.10;99.90;;;;;;8383947;28;19978;-71
2022/05/20 03:50:28;;;;;;;;;;;12.10;99.90;;;;;;8396802;28;19921;-70
2022/05/20 03:54:34;;;;;;;;;;;12.10;99.90;;;;;;8398624;28;19920;-70
2022/05/20 03:58:36;;;;;;;;;;;12.10;99.90;;;;;;8398999;28;19925;-70
2022/05/20 04:02:38;;;;;;;;;;;12.00;99.90;;;;;;8385847;28;19927;-70
2022/05/20 04:06:39;;;;;;;;;;;12.00;99.90;;;;;;8399798;28;19920;-71
2022/05/20 04:10:41;;;;;;;;;;;12.00;99.90;;;;;;8373203;28;19973;-71
2022/05/20 04:14:43;;;;;;;;;;;11.90;99.90;;;;;;8375490;28;19924;-71
2022/05/20 04:18:45;;;;;;;;;;;11.90;99.90;;;;;;8391583;28;19928;-70
2022/05/20 04:22:46;;;;;;;;;;;11.90;99.90;;;;;;8405574;28;19947;-70
2022/05/20 04:26:48;;;;;;;;;;;11.90;99.90;;;;;;8392836;28;20280;-70
2022/05/20 04:30:54;;;;;;;;;;;11.90;99.90;;;;;;8370820;28;19944;-70
2022/05/20 04:34:56;;;;;;;;;;;11.90;99.90;;;;;;8377249;28;19932;-71
2022/05/20 04:38:59;;;;;;;;;;;12.00;99.90;;;;;;8386711;28;19924;-70
2022/05/20 04:47:22;;;;;;;;;;;12.00;99.90;;;;;;8387104;28;19921;-70
2022/05/20 04:51:24;;;;;;;;;;;12.10;99.90;;;;;;8387151;28;19927;-70
2022/05/20 04:55:25;;;;;;;;;;;12.10;99.90;;;;;;8389953;28;19935;-70
2022/05/20 04:59:27;;;;;;;;;;;12.20;99.90;;;;;;8444867;27;19990;-70
2022/05/20 05:03:29;;;;;;;;;;;12.30;99.90;;;;;;8388610;28;19920;-70
2022/05/20 05:07:31;;;;;;;;;;;12.40;99.90;;;;;;8382164;28;19920;-70
2022/05/20 05:11:33;;;;;;;;;;;12.50;99.90;;;;;;8384384;28;19938;-70
2022/05/20 05:15:35;;;;;;;;;;;12.50;99.90;;;;;;8399026;28;19927;-70
2022/05/20 05:19:37;;;;;;;;;;;12.50;99.90;;;;;;8389936;28;19925;-70
2022/05/20 05:23:39;;;;;;;;;;;12.60;99.90;;;;;;8386580;28;20276;-70
2022/05/20 05:27:41;;;;;;;;;;;12.60;99.90;;;;;;8386946;28;19920;-70
2022/05/20 05:31:42;;;;;;;;;;;12.70;99.90;;;;;;8391614;28;19943;-70
2022/05/20 05:35:44;;;;;;;;;;;12.70;99.90;;;;;;8386484;28;19920;-70
2022/05/20 05:39:46;;;;;;;;;;;12.80;99.90;;;;;;8384890;28;19920;-70
2022/05/20 05:43:48;;;;;;;;;;;12.90;99.90;;;;;;8394740;28;19921;-70
2022/05/20 05:47:57;;;;;;;;;;;13.00;99.90;;;;;;8384655;28;19931;-70
2022/05/20 05:51:59;;;;;;;;;;;13.10;99.90;;;;;;8392554;28;19921;-70
2022/05/20 05:56:02;;;;;;;;;;;13.20;99.90;;;;;;8390495;28;19925;-70
2022/05/20 06:00:04;;;;;;;;;;;13.30;99.90;;;;;;8385681;28;20295;-70
2022/05/20 06:04:06;;;;;;;;;;;13.40;99.90;;;;;;8390707;28;19931;-70
2022/05/20 06:08:08;;;;;;;;;;;13.50;99.90;;;;;;8373525;28;19924;-70
2022/05/20 06:12:09;;;;;;;;;;;13.70;99.90;;;;;;8356073;28;19928;-71
2022/05/20 06:16:16;;;;;;;;;;;13.80;99.90;;;;;;8354967;28;20679;-70
2022/05/20 06:20:18;;;;;;;;;;;14.00;99.90;;;;;;8354186;28;20307;-70
2022/05/20 06:24:20;;;;;;;;;;;14.20;99.90;;;;;;8370645;28;20240;-70
2022/05/20 06:28:22;;;;;;;;;;;14.40;99.90;;;;;;8353259;28;19936;-70
2022/05/20 06:32:23;;;;;;;;;;;14.50;99.90;;;;;;8382738;28;19924;-70
2022/05/20 06:40:47;;;;;;;;;;;14.90;99.90;;;;;;8375622;28;19936;-69
2022/05/20 06:44:49;;;;;;;;;;;15.00;99.90;;;;;;8377619;28;20338;-69
2022/05/20 06:48:53;;;;;;;;;;;15.20;99.90;;;;;;8378810;28;19927;-69
2022/05/20 06:52:54;;;;;;;;;;;15.30;99.90;;;;;;8378307;28;19935;-69
2022/05/20 06:56:56;;;;;;;;;;;15.40;99.90;;;;;;8373668;28;19924;-69
2022/05/20 07:00:58;;;;;;;;;;;15.60;99.90;;;;;;8380699;28;19924;-67
2022/05/20 07:05:03;;;;;;;;;;;15.70;99.90;;;;;;8383286;28;19929;-69
2022/05/20 07:09:05;;;;;;;;;;;15.70;99.90;;;;;;8380482;28;20009;-69
2022/05/20 07:13:07;;;;;;;;;;;15.80;99.90;;;;;;8379555;28;19935;-70
2022/05/20 07:17:09;;;;;;;;;;;15.90;99.90;;;;;;8395222;28;19920;-69
2022/05/20 07:21:10;;;;;;;;;;;15.90;99.90;;;;;;8410304;27;19931;-69
2022/05/20 07:25:12;;;;;;;;;;;16.00;99.90;;;;;;8415200;27;19927;-69
2022/05/20 07:29:14;;;;;;;;;;;16.10;99.90;;;;;;8381570;28;20393;-69
2022/05/20 07:33:15;;;;;;;;;;;16.20;99.90;;;;;;8387631;28;19977;-69
2022/05/20 07:37:17;;;;;;;;;;;16.30;99.90;;;;;;8384920;28;19920;-69
2022/05/20 07:41:20;;;;;;;;;;;16.40;99.90;;;;;;8396864;28;19939;-69
2022/05/20 07:45:22;;;;;;;;;;;16.60;99.90;;;;;;8385004;28;20023;-69
2022/05/20 07:49:23;;;;;;;9.52;5.30;;;16.80;99.90;;;;;;8380325;28;20394;-69
2022/05/20 07:53:35;;;;;;;8.00;5.65;;;16.90;99.90;;;;;;8382549;28;20040;-69
2022/05/20 07:57:39;;;;;;;9.63;6.70;;;17.10;99.90;;;;;;8384686;28;20044;-69
2022/05/20 08:01:45;;;;;;;8.18;5.95;;;17.20;99.90;;;;;;8380256;28;20052;-69
2022/05/20 08:05:47;;;;;;;;;;;17.20;99.90;;;;;;8382626;28;20052;-69
2022/05/20 08:09:48;;;;;;;;;;;17.20;99.90;;;;;;8382232;28;19924;-69
2022/05/20 08:13:50;;;;;;;;;;;17.30;99.90;;;;;;8385360;28;19920;-69
2022/05/20 08:17:52;;;;;;;;;;;17.40;99.90;;;;;;8386818;28;19943;-69
2022/05/20 08:21:59;;;;;;;;;;;17.50;99.90;;;;;;8383760;28;19924;-69
2022/05/20 08:26:01;;;;;;;;;;;17.50;99.90;;;;;;8380926;28;19936;-69
2022/05/20 08:30:08;;;;;;;;;;;17.70;99.90;;;;;;8384732;28;19966;-69
2022/05/20 08:34:09;;;;;;;;;;;17.80;99.90;;;;;;8380479;28;19951;-69
2022/05/20 08:38:11;;;;;;;;;;;18.00;99.90;;;;;;8377590;28;19921;-69
2022/05/20 08:42:14;;;;;;;;;;;18.00;99.90;;;;;;8372899;28;19924;-70
2022/05/20 08:46:17;;;;;;;;;;;18.10;99.90;;;;;;8372686;28;19921;-70
2022/05/20 08:50:22;;;;;;;;;;;18.20;99.90;;;;;;8376430;28;20011;-70
2022/05/20 08:54:23;;;;;;;;;;;18.20;99.90;;;;;;8382855;28;19927;-67
2022/05/20 08:58:26;;;;;;;;;;;18.30;99.90;;;;;;8378987;28;19929;-67
2022/05/20 09:02:27;;;;;;;;;;;18.40;99.90;;;;;;8384100;28;20512;-67
2022/05/20 09:06:30;;;;;;;;;;;18.50;99.90;;;;;;8385776;28;19920;-67
2022/05/20 09:10:42;;;;;;;;;;;18.60;99.90;;;;;;8386200;28;19928;-67
2022/05/20 09:19:07;;;;;;;;;;;18.80;99.90;;;;;;8386192;28;19936;-67
2022/05/20 09:23:10;;;;;;;;;;;18.90;99.90;;;;;;8384239;28;19924;-67
2022/05/20 09:27:13;;;;;;;;;;;19.00;99.90;;;;;;8389781;28;19924;-67
2022/05/20 09:31:21;;;;;;;;;;;19.00;99.90;;;;;;8390750;28;20319;-68
2022/05/20 09:35:23;;;;;;;;;;;19.00;99.90;;;;;;8392300;28;19967;-69
2022/05/20 09:39:45;;;;;;;;;;;19.00;99.90;;;;;;8390616;28;19924;-69
2022/05/20 09:43:58;;;;;;;;;;;19.10;99.90;;;;;;8389061;28;19926;-69
2022/05/20 09:48:00;;;;;;;;;;;19.10;99.90;;;;;;8390308;28;19927;-69
2022/05/20 09:52:02;;;;;;;;;;;19.20;99.90;;;;;;8389326;28;19931;-69
2022/05/20 09:56:28;;;;;;;;;;;19.30;99.90;;;;;;8392583;28;19924;-69
2022/05/20 10:00:32;;;;;;;;;;;19.40;99.90;;;;;;8390615;28;20018;-69
2022/05/20 10:04:58;;;;;;;;;;;19.40;99.90;;;;;;8389337;28;19993;-69
2022/05/20 10:09:09;;;;;;;;;;;19.50;99.90;;;;;;8378286;28;19920;-69
2022/05/20 10:13:28;;;;;;;;;;;19.60;99.90;;;;;;8389245;28;20268;-69
2022/05/20 10:17:39;;;;;;;;;;;19.80;99.90;;;;;;8389037;28;19924;-69
2022/05/20 10:21:53;;;;;;;;;;;19.90;99.90;;;;;;8390154;28;20352;-70
2022/05/20 10:26:01;;;;;;;;;;;19.90;99.90;;;;;;8387928;28;20415;-69
2022/05/20 10:34:24;;;;;;;;;;;19.80;99.90;;;;;;8391065;28;19927;-69
2022/05/20 10:38:32;;;;;;;;;;;19.80;99.90;;;;;;8388093;28;19921;-69
2022/05/20 10:42:52;;;;;;;;;;;19.80;99.90;;;;;;8390021;28;19931;-69
2022/05/20 10:51:17;;;;;;;;;;;19.80;99.90;;;;;;8389049;28;20367;-69
2022/05/20 10:55:25;;;;;;;;;;;19.90;99.90;;;;;;8388926;28;19927;-69
2022/05/20 10:59:54;;;;;;;;;;;20.00;99.90;;;;;;8386287;28;20327;-69
2022/05/20 11:03:59;;;;;;;;;;;20.00;99.90;;;;;;8388545;28;20352;-69
2022/05/20 11:08:04;;;;;;;;;;;20.10;99.90;;;;;;8387435;28;19928;-69
2022/05/20 11:12:08;;;;;;;;;;;20.10;99.90;;;;;;8388547;28;19927;-69
2022/05/20 11:16:13;;;;;;;;;;;20.10;99.90;;;;;;8388918;28;19928;-69
2022/05/20 11:20:33;;;;;;;;;;;20.10;99.90;;;;;;8388665;28;19929;-69
2022/05/20 11:24:44;;;;;;;;;;;20.10;99.90;;;;;;8387544;28;19928;-69
2022/05/20 11:28:47;;;;;;;;;;;20.20;99.90;;;;;;8386209;28;19989;-69
2022/05/20 11:32:49;;;;;;;;;;;20.20;99.90;;;;;;8373825;28;20347;-69
2022/05/20 11:37:00;;;;;;;;;;;20.20;99.90;;;;;;8383032;28;19924;-69
2022/05/20 11:41:03;;;;;;;;;;;20.30;99.90;;;;;;8381871;28;19966;-69
2022/05/20 11:45:10;;;;;;;;;;;20.40;99.90;;;;;;8385713;28;19924;-69
2022/05/20 11:49:15;;;;;;;;;;;20.40;99.90;;;;;;8379737;28;19920;-68
2022/05/20 11:53:27;;;;;;;;;;;20.30;99.90;;;;;;8374200;28;19920;-69
2022/05/20 11:57:38;;;;;;;;;;;20.30;99.90;;;;;;8376000;28;20268;-69
2022/05/20 12:01:40;;;;;;;;;;;20.20;99.90;;;;;;8377492;28;19924;-69
2022/05/20 12:05:43;;;;;;;;;;;20.10;99.90;;;;;;8372542;28;19920;-68
2022/05/20 12:09:47;;;;;;;;;;;20.00;99.90;;;;;;8376019;28;19935;-68
2022/05/20 12:14:19;;;;;;;;;;;19.90;99.90;;;;;;8391945;28;19924;-68
2022/05/20 12:24:11;;;;;;;;;;;19.80;99.90;;;;;;8366937;28;19935;-68
2022/05/20 12:27:25;;;;;;;;;;;19.60;99.90;;;;;;8376234;28;19920;-68
2022/05/20 12:31:39;;;;;;;;;;;19.50;99.90;;;;;;8375249;28;20442;-68
2022/05/20 12:36:00;;;;;;;;;;;19.50;99.90;;;;;;8373019;28;19920;-68
2022/05/20 12:40:02;;;;;;;;;;;19.30;99.90;;;;;;8372871;28;20094;-69
2022/05/20 12:44:16;;;;;;;;;;;19.20;99.90;;;;;;8379547;28;19935;-69
2022/05/20 12:48:21;;;;;;;;;;;19.10;99.90;;;;;;8393762;28;19920;-69
2022/05/20 12:52:22;;;;;;;;;;;18.90;99.90;;;;;;8380190;28;20055;-69
2022/05/20 12:56:26;;;;;;;;;;;18.80;99.90;;;;;;8360143;28;19924;-69
2022/05/20 13:00:32;;;;;;;;;;;18.60;99.90;;;;;;8361684;28;19928;-69
2022/05/20 13:04:37;;;;;;;;;;;18.30;99.90;;;;;;8367829;28;19928;-69
2022/05/20 13:08:45;;;;;;;;;;;18.30;99.90;;;;;;8379442;28;19924;-69
2022/05/20 13:12:51;;;;;;;;;;;18.20;99.90;;;;;;8379818;28;20913;-69
2022/05/20 13:16:54;;;;;;;;;;;18.30;99.90;;;;;;8376175;28;19924;-69
2022/05/20 13:20:58;;;;;;;;;;;18.30;99.90;;;;;;8382697;28;19959;-69
2022/05/20 13:25:03;;;;;;;;;;;18.30;99.90;;;;;;8410010;27;19943;-69
2022/05/20 13:29:10;;;;;;;;;;;18.30;99.90;;;;;;8379636;28;19935;-69
2022/05/20 13:33:12;;;;;;;;;;;18.30;99.90;;;;;;8410992;27;19939;-69
2022/05/20 13:37:15;;;;;;;;;;;18.30;99.90;;;;;;8378819;28;19936;-69
2022/05/20 13:41:20;;;;;;;;;;;18.30;99.90;;;;;;8382113;28;20364;-69
2022/05/20 13:49:12;;;;;;;;;;;18.20;99.90;;;;;;8403627;28;19929;-69
2022/05/20 13:49:45;;;;;;;;;;;18.20;99.90;;;;;;8384654;28;19929;-69
2022/05/20 13:53:48;;;;;;;;;;;18.20;99.90;;;;;;8383973;28;19935;-69
2022/05/20 13:57:53;;;;;;;;;;;18.00;99.90;;;;;;8379523;28;19928;-70
2022/05/20 14:02:10;;;;;;;;;;;17.70;99.90;;;;;;8377382;28;19928;-69
2022/05/20 14:06:25;;;;;;;;;;;17.60;99.90;;;;;;8409348;27;20032;-68
2022/05/20 14:10:26;;;;;;;;;;;17.40;99.90;;;;;;8378418;28;19920;-69
2022/05/20 14:14:29;;;;;;;;;;;17.00;99.90;;;;;;8409890;27;19920;-70
2022/05/20 14:18:36;;;;;;;;;;;16.90;99.90;;;;;;8375609;28;19928;-70
2022/05/20 14:22:42;;;;;;;;;;;16.90;99.90;;;;;;8382545;28;19920;-71
2022/05/20 14:26:49;;;;;;;;;;;16.90;99.90;;;;;;8411663;27;20371;-71
2022/05/20 14:30:53;;;;;;;;;;;17.00;99.90;;;;;;8395111;28;19952;-71
2022/05/20 14:34:56;;;;;;;;;;;17.00;99.90;;;;;;8381600;28;19920;-71
2022/05/20 14:38:59;;;;;;;;;;;16.90;99.90;;;;;;8388080;28;21558;-71
2022/05/20 14:43:05;;;;;;;;;;;16.80;99.90;;;;;;8384264;28;20544;-71
2022/05/20 14:47:16;;;;;;;;;;;16.70;99.90;;;;;;8379182;28;19924;-70
2022/05/20 14:51:24;;;;;;;;;;;16.60;99.90;;;;;;8400354;28;19921;-70
2022/05/20 14:55:28;;;;;;;;;;;16.50;99.90;;;;;;8381184;28;19931;-70
2022/05/20 14:59:31;;;;;;;;;;;16.50;99.90;;;;;;8383959;28;20022;-70
2022/05/20 15:03:35;;;;;;;;;;;16.50;99.90;;;;;;8379461;28;19947;-70
2022/05/20 15:07:37;;;;;;;;;;;16.50;99.90;;;;;;8398288;28;19928;-70
2022/05/20 15:11:39;;;;;;;;;;;16.40;99.90;;;;;;8383303;28;19932;-70
2022/05/20 15:15:41;;;;;;;;;;;16.30;99.90;;;;;;8405981;27;20685;-70
2022/05/20 15:19:43;;;;;;;;;;;16.20;99.90;;;;;;8397033;28;19920;-70
2022/05/20 15:23:46;;;;;;;;;;;16.10;99.90;;;;;;8381984;28;20438;-70
2022/05/20 15:27:48;;;;;;;;;;;15.90;99.90;;;;;;8394031;28;19920;-69
2022/05/20 15:36:10;;;;;;;;;;;15.10;99.90;;;;;;8381270;28;19943;-70
2022/05/20 15:40:35;;;;;;;;;;;14.80;99.90;;;;;;8383595;28;19928;-71
2022/05/20 15:44:36;;;;;;;;;;;14.70;99.90;;;;;;8383208;28;19924;-70
2022/05/20 15:48:38;;;;;;;;;;;14.60;99.90;;;;;;8379934;28;20287;-70
2022/05/20 15:52:43;;;;;;;;;;;14.50;99.90;;;;;;8378309;28;19974;-70
2022/05/20 15:56:45;;;;;;;;;;;14.50;99.90;;;;;;8370344;28;19935;-70
2022/05/20 16:00:47;;;;;;;;;;;14.50;99.90;;;;;;8374502;28;19964;-70
2022/05/20 16:04:49;;;;;;;;;;;14.70;99.90;;;;;;8380375;28;19920;-69
2022/05/20 16:08:52;;;;;;;;;;;14.70;99.90;;;;;;8377769;28;20023;-69
2022/05/20 16:12:54;;;;;;;;;;;14.90;99.90;;;;;;8373683;28;19924;-69
2022/05/20 16:16:56;;;;;;;;;;;14.90;99.90;;;;;;8377744;28;19924;-70
2022/05/20 16:21:00;;;;;;;;;;;15.10;99.90;;;;;;8374694;28;19956;-69
2022/05/20 16:25:02;;;;;;;;;;;15.10;99.90;;;;;;8366539;28;19920;-70
2022/05/20 16:29:03;;;;;;;;;;;15.20;99.90;;;;;;8375373;28;20186;-71
2022/05/20 16:33:06;;;;;;;;;;;15.30;99.90;;;;;;8377605;28;20344;-71
2022/05/20 16:37:07;;;;;;;;;;;15.40;99.90;;;;;;8375027;28;19924;-70
2022/05/20 16:41:12;;;;;;;;;;;15.50;99.90;;;;;;8376991;28;19931;-70
2022/05/20 16:45:14;;;;;;;;;;;15.40;99.90;;;;;;8376447;28;19924;-70
2022/05/20 16:49:18;;;;;;;;;;;15.30;99.90;;;;;;8376613;28;19928;-70
2022/05/20 16:53:20;;;;;;;;;;;15.20;99.90;;;;;;8378568;28;19948;-70
2022/05/20 17:01:47;;;;;;;;;;;15.00;99.90;;;;;;8381928;28;20343;-71
2022/05/20 17:05:49;;;;;;;;;;;15.00;99.90;;;;;;8382581;28;19929;-70
2022/05/20 17:09:51;;;;;;;;;;;14.90;99.90;;;;;;8373428;28;19920;-70
2022/05/20 17:13:53;;;;;;;;;;;14.80;99.90;;;;;;8375327;28;19943;-70
2022/05/20 17:17:56;;;;;;;;;;;14.50;99.90;;;;;;8375573;28;20003;-70
2022/05/20 17:26:18;;;;;;;;;;;14.30;99.90;;;;;;8369922;28;19929;-70
2022/05/20 17:30:20;;;;;;;;;;;14.20;99.90;;;;;;8391448;28;19935;-70
2022/05/20 17:34:22;;;;;;;;;;;14.20;99.90;;;;;;8379754;28;19924;-70
2022/05/20 17:38:25;;;;;;;;;;;14.10;99.90;;;;;;8372726;28;19940;-70
2022/05/20 17:42:27;;;;;;;;;;;14.10;99.90;;;;;;8379270;28;19920;-70
2022/05/20 17:46:30;;;;;;;;;;;14.00;99.90;;;;;;8381213;28;19924;-70
2022/05/20 17:50:32;;;;;;;;;;;14.00;99.90;;;;;;8380631;28;19921;-70
2022/05/20 17:54:34;;;;;;;;;;;13.90;99.90;;;;;;8384548;28;19928;-70
2022/05/20 17:58:36;;;;;;;;;;;13.90;99.90;;;;;;8380080;28;19924;-70
2022/05/20 18:02:38;;;;;;;;;;;13.80;99.90;;;;;;8386708;28;20356;-70
2022/05/20 18:06:40;;;;;;;;;;;13.70;99.90;;;;;;8385794;28;19920;-70
2022/05/20 18:10:43;;;;;;;;;;;13.70;99.90;;;;;;8385743;28;19920;-70
2022/05/20 18:14:45;;;;;;;;;;;13.70;99.90;;;;;;8392594;28;19920;-70
2022/05/20 18:18:47;;;;;;;;;;;13.70;99.90;;;;;;8380479;28;19935;-70
2022/05/20 18:22:49;;;;;;;;;;;13.70;99.90;;;;;;8381506;28;19944;-70
2022/05/20 18:26:50;;;;;;;;;;;13.70;99.90;;;;;;8381008;28;19928;-70
2022/05/20 18:30:53;;;;;;;;;;;13.70;99.90;;;;;;8377799;28;19921;-69
2022/05/20 18:39:17;;;;;;;;;;;13.70;99.90;;;;;;8381876;28;20035;-70
2022/05/20 18:43:19;;;;;;;;;;;13.70;99.90;;;;;;8379356;28;20390;-69
2022/05/20 18:47:23;;;;;;;;;;;13.60;99.90;;;;;;8381930;28;19921;-69
2022/05/20 18:51:24;;;;;;;;;;;13.50;99.90;;;;;;8396314;28;20000;-69
2022/05/20 18:55:26;;;;;;;;;;;13.50;99.90;;;;;;8381757;28;20387;-70
2022/05/20 18:59:30;;;;;;;;;;;13.40;99.90;;;;;;8379313;28;19930;-70
2022/05/20 19:03:43;;;;;;;;;;;13.40;99.90;;;;;;8377905;28;19958;-69
2022/05/20 19:07:45;;;;;;;;;;;13.40;99.90;;;;;;8372617;28;20368;-69
2022/05/20 19:11:47;;;;;;;;;;;13.30;99.90;;;;;;8379764;28;19928;-69
2022/05/20 19:15:48;;;;;;;;;;;13.30;99.90;;;;;;8376121;28;19924;-69
2022/05/20 19:19:50;;;;;;;;;;;13.30;99.90;;;;;;8383329;28;19932;-69
2022/05/20 19:23:52;;;;;;;;;;;13.30;99.90;;;;;;8396916;28;19920;-70
2022/05/20 19:27:54;;;;;;;;;;;13.40;99.90;;;;;;8372245;28;19932;-69
2022/05/20 19:31:55;;;;;;;;;;;13.40;99.90;;;;;;8373387;28;19928;-69
2022/05/20 19:35:57;;;;;;;;;;;13.40;99.90;;;;;;8375266;28;19924;-69
2022/05/20 19:39:59;;;;;;;;;;;13.40;99.90;;;;;;8378651;28;20296;-69
2022/05/20 19:44:00;;;;;;;;;;;13.40;99.90;;;;;;8381672;28;20352;-69
2022/05/20 19:48:02;;;;;;;;;;;13.40;99.90;;;;;;8375007;28;20208;-70
2022/05/20 19:52:05;;;;;;;;;;;13.40;99.90;;;;;;8394650;28;19947;-70
2022/05/20 19:56:07;;;;;;;;;;;13.40;99.90;;;;;;8381602;28;20249;-70
2022/05/20 20:04:36;;;;;;;;;;;13.40;99.90;;;;;;8372881;28;19928;-75
2022/05/20 20:08:37;;;;;;;;;;;13.40;99.90;;;;;;8379027;28;20011;-75
2022/05/20 20:12:39;;;;;;;;;;;13.40;99.90;;;;;;8383343;28;19925;-74
2022/05/20 20:16:42;;;;;;;;;;;13.40;99.90;;;;;;8379775;28;19975;-75
2022/05/20 20:20:45;;;;;;;;;;;13.40;99.90;;;;;;8396800;28;19920;-74
2022/05/20 20:29:16;;;;;;;;;;;13.40;99.90;;;;;;8380139;28;20386;-75
2022/05/20 20:33:17;;;;;;;;;;;13.30;99.90;;;;;;8379310;28;19921;-74
2022/05/20 20:37:20;;;;;;;;;;;13.30;99.90;;;;;;8395391;28;19931;-75
2022/05/20 20:41:31;;;;;;;;;;;13.30;99.90;;;;;;8382162;28;19928;-74
2022/05/20 20:45:33;;;;;;;;;;;13.30;99.90;;;;;;8382425;28;19927;-74
2022/05/20 20:49:35;;;;;;;;;;;13.20;99.90;;;;;;8378943;28;19920;-75
2022/05/20 20:53:36;;;;;;;;;;;13.20;99.90;;;;;;8380713;28;19947;-75
2022/05/20 20:57:38;;;;;;;;;;;13.10;99.90;;;;;;8378506;28;19927;-75
2022/05/20 21:01:40;;;;;;;;;;;13.10;99.90;;;;;;8388616;28;20217;-75
2022/05/20 21:05:42;;;;;;;;;;;13.00;99.90;;;;;;8388868;28;19928;-75
2022/05/20 21:09:44;;;;;;;;;;;13.00;99.90;;;;;;8389953;28;19924;-75
2022/05/20 21:13:46;;;;;;;;;;;12.90;99.90;;;;;;8396307;28;19924;-75
2022/05/20 21:17:47;;;;;;;;;;;12.90;99.90;;;;;;8417088;28;19921;-75
2022/05/20 21:21:49;;;;;;;;;;;12.80;99.90;;;;;;8395267;28;19931;-75
2022/05/20 21:25:52;;;;;;;;;;;12.70;99.90;;;;;;8400222;28;20392;-75
2022/05/20 21:29:54;;;;;;;;;;;12.70;99.90;;;;;;8407842;28;19920;-75
2022/05/20 21:33:55;;;;;;;;;;;12.60;99.90;;;;;;8396939;28;19939;-75
2022/05/20 21:37:57;;;;;;;;;;;12.50;99.90;;;;;;8405675;28;19920;-75
2022/05/20 21:41:58;;;;;;;;;;;12.40;99.90;;;;;;8401644;28;20232;-75
2022/05/20 21:46:47;;;;;;;;;;;12.30;99.90;;;;;;8403857;28;19925;-75
2022/05/20 21:50:48;;;;;;;;;;;12.20;99.90;;;;;;8407108;28;20390;-75
2022/05/20 21:54:51;;;;;;;;;;;12.10;99.90;;;;;;8395725;28;19921;-75
2022/05/20 21:58:52;;;;;;;;;;;12.10;99.90;;;;;;8415972;28;19920;-75
2022/05/20 22:11:42;;;;;;;;;;;12.10;99.90;;;;;;8411140;28;19924;-74
2022/05/20 22:15:45;;;;;;;;;;;12.10;99.90;;;;;;8424193;27;19927;-74
2022/05/20 22:19:47;;;;;;;;;;;12.10;99.90;;;;;;8386739;28;19959;-74
2022/05/20 22:23:49;;;;;;;;;;;12.10;99.90;;;;;;8394024;28;19920;-75
2022/05/20 22:27:50;;;;;;;;;;;12.10;99.90;;;;;;8388292;28;19974;-74
2022/05/20 22:31:52;;;;;;;;;;;12.10;99.90;;;;;;8398255;28;20268;-74
2022/05/20 22:35:53;;;;;;;;;;;12.10;99.90;;;;;;8418722;28;20287;-75
2022/05/20 22:39:55;;;;;;;;;;;12.10;99.90;;;;;;8402726;28;19928;-74
2022/05/20 22:43:57;;;;;;;;;;;12.10;99.90;;;;;;8392300;28;19932;-75
2022/05/20 22:48:14;;;;;;;;;;;12.00;99.90;;;;;;8393720;28;20316;-74
2022/05/20 22:52:16;;;;;;;;;;;12.00;99.90;;;;;;8408209;28;19924;-75
2022/05/20 22:56:17;;;;;;;;;;;12.00;99.90;;;;;;8400267;28;19920;-74
2022/05/20 23:00:21;;;;;;;;;;;12.00;99.90;;;;;;8408540;28;19927;-74
2022/05/20 23:04:23;;;;;;;;;;;12.00;99.90;;;;;;8406498;28;19974;-74
2022/05/20 23:08:25;;;;;;;;;;;12.00;99.90;;;;;;8396916;28;19935;-74
2022/05/20 23:12:27;;;;;;;;;;;12.00;99.90;;;;;;8394196;28;20027;-74
2022/05/20 23:16:29;;;;;;;;;;;12.10;99.90;;;;;;8388575;28;19932;-74
2022/05/20 23:20:30;;;;;;;;;;;12.10;99.90;;;;;;8401333;28;19923;-74
2022/05/20 23:24:32;;;;;;;;;;;12.10;99.90;;;;;;8398748;28;20261;-74
2022/05/20 23:28:34;;;;;;;;;;;12.20;99.90;;;;;;8387926;28;19982;-74
2022/05/20 23:32:36;;;;;;;;;;;12.30;99.90;;;;;;8410258;28;20564;-74
2022/05/20 23:36:38;;;;;;;;;;;12.40;99.90;;;;;;8408845;28;20336;-74
2022/05/20 23:40:40;;;;;;;;;;;12.40;99.90;;;;;;8394721;28;19928;-73
2022/05/20 23:44:42;;;;;;;;;;;12.50;99.90;;;;;;8412474;28;20359;-74
2022/05/20 23:48:44;;;;;;;;;;;12.60;99.90;;;;;;8400130;28;19940;-74
2022/05/20 23:52:45;;;;;;;;;;;12.60;99.90;;;;;;8404106;28;19924;-74
